Overview Statistics Trail Chart Weather Telemetry Raw packets
 

This is the latest recevied weather packets stored in our database for station/object YD2CLX-11. If no packets are shown the sender has not sent any weather packets the latest 10 day(s).

<< 24 25 26 27 28 29 30 >>
Time Temp. Humidity Pressure Rain* Wind** Luminosity Snow
1788229428 35° C 44% 1001.5 hPa - - - -
1788228826 34.44° C 43% 1001.5 hPa - - - -
1788228225 34.44° C 45% 1001.7 hPa - - - -
1788227624 32.78° C 51% 1001.9 hPa - - - -
1788227023 33.33° C 49% 1001.7 hPa - - - -
1788226422 33.33° C 50% 1001.7 hPa - - - -
1788225821 33.33° C 51% 1001.9 hPa - - - -
1788225220 31.67° C 54% 1002 hPa - - - -
1788224619 32.22° C 55% 1002.2 hPa - - - -
1788224018 32.78° C 56% 1001.9 hPa - - - -
1788223417 31.67° C 59% 1001.9 hPa - - - -
1788222815 31.67° C 59% 1001.9 hPa - - - -
1788222214 32.22° C 58% 1001.8 hPa - - - -
1788221613 31.11° C 62% 1001.8 hPa - - - -
1788221012 30.56° C 64% 1001.7 hPa - - - -
1788220411 30.56° C 65% 1001.7 hPa - - - -
1788219810 30° C 68% 1001.6 hPa - - - -
1788219209 29.44° C 69% 1001.7 hPa - - - -
1788218608 28.33° C 72% 1001.7 hPa - - - -
1788218006 27.78° C 72% 1001.6 hPa - - - -
1788217405 27.22° C 73% 1001.5 hPa - - - -
1788216804 23.89° C 83% 1001.4 hPa - - - -
1788216203 21.11° C 86% 1001.5 hPa - - - -
1788215602 21.11° C 87% 1001.3 hPa - - - -
1788215001 21.11° C 87% 1001.2 hPa - - - -

* Rain since midnight (hover to see other rain measurements)
** Current wind speed in m/s (hover to see current wind gust speed)